sensor_id;sensor_type;location;lat;lon;timestamp;pressure;altitude;pressure_sealevel;temperature;humidity
66547;BME280;53400;50.364;14.874;2022-08-19T00:00:16;97813.09;;;23.91;53.84
66547;BME280;53400;50.364;14.874;2022-08-19T00:03:02;97816.28;;;23.77;54.27
66547;BME280;53400;50.364;14.874;2022-08-19T00:05:28;97821.25;;;23.59;54.60
66547;BME280;53400;50.364;14.874;2022-08-19T00:07:54;97818.34;;;23.68;54.31
66547;BME280;53400;50.364;14.874;2022-08-19T00:10:20;97817.31;;;23.72;53.94
66547;BME280;53400;50.364;14.874;2022-08-19T00:12:46;97820.59;;;23.78;54.20
66547;BME280;53400;50.364;14.874;2022-08-19T00:15:17;97825.88;;;23.71;54.07
66547;BME280;53400;50.364;14.874;2022-08-19T00:17:44;97813.97;;;23.79;53.91
66547;BME280;53400;50.364;14.874;2022-08-19T00:20:13;97812.75;;;23.64;54.29
66547;BME280;53400;50.364;14.874;2022-08-19T00:22:42;97819.47;;;23.67;54.33
66547;BME280;53400;50.364;14.874;2022-08-19T00:25:08;97807.75;;;23.66;54.32
66547;BME280;53400;50.364;14.874;2022-08-19T00:27:34;97808.53;;;23.67;54.47
66547;BME280;53400;50.364;14.874;2022-08-19T00:30:00;97808.06;;;23.49;54.77
66547;BME280;53400;50.364;14.874;2022-08-19T00:32:30;97805.44;;;23.24;55.50
66547;BME280;53400;50.364;14.874;2022-08-19T00:34:55;97815.47;;;22.80;56.88
66547;BME280;53400;50.364;14.874;2022-08-19T00:37:23;97812.84;;;22.83;57.08
66547;BME280;53400;50.364;14.874;2022-08-19T00:39:49;97801.41;;;22.65;57.56
66547;BME280;53400;50.364;14.874;2022-08-19T00:42:17;97793.38;;;22.85;57.12
66547;BME280;53400;50.364;14.874;2022-08-19T00:44:43;97783.25;;;22.85;57.16
66547;BME280;53400;50.364;14.874;2022-08-19T00:47:09;97787.16;;;22.72;57.84
66547;BME280;53400;50.364;14.874;2022-08-19T00:49:42;97781.09;;;22.02;60.10
66547;BME280;53400;50.364;14.874;2022-08-19T00:52:14;97786.28;;;21.70;61.31
66547;BME280;53400;50.364;14.874;2022-08-19T00:54:42;97785.59;;;21.61;61.73
66547;BME280;53400;50.364;14.874;2022-08-19T00:57:10;97787.91;;;21.38;62.88
66547;BME280;53400;50.364;14.874;2022-08-19T00:59:42;97781.31;;;21.39;63.11
66547;BME280;53400;50.364;14.874;2022-08-19T01:02:09;97787.09;;;21.83;61.53
66547;BME280;53400;50.364;14.874;2022-08-19T01:04:35;97793.66;;;21.82;61.74
66547;BME280;53400;50.364;14.874;2022-08-19T01:07:02;97792.56;;;21.37;63.67
66547;BME280;53400;50.364;14.874;2022-08-19T01:09:29;97793.44;;;21.74;62.91
66547;BME280;53400;50.364;14.874;2022-08-19T01:11:56;97796.75;;;21.80;62.76
66547;BME280;53400;50.364;14.874;2022-08-19T01:14:22;97800.97;;;21.44;64.24
66547;BME280;53400;50.364;14.874;2022-08-19T01:16:49;97797.41;;;21.11;66.15
66547;BME280;53400;50.364;14.874;2022-08-19T01:21:57;97806.69;;;20.97;67.04
66547;BME280;53400;50.364;14.874;2022-08-19T01:24:27;97800.03;;;20.86;67.86
66547;BME280;53400;50.364;14.874;2022-08-19T01:26:53;97807.28;;;20.82;67.79
66547;BME280;53400;50.364;14.874;2022-08-19T01:29:20;97812.13;;;20.76;68.39
66547;BME280;53400;50.364;14.874;2022-08-19T01:31:46;97817.88;;;20.75;68.97
66547;BME280;53400;50.364;14.874;2022-08-19T01:34:11;97825.28;;;20.66;69.65
66547;BME280;53400;50.364;14.874;2022-08-19T01:36:39;97832.41;;;20.49;71.03
66547;BME280;53400;50.364;14.874;2022-08-19T01:39:09;97837.38;;;20.56;71.27
66547;BME280;53400;50.364;14.874;2022-08-19T01:41:37;97835.53;;;20.69;70.99
66547;BME280;53400;50.364;14.874;2022-08-19T01:44:04;97833.06;;;20.55;71.55
66547;BME280;53400;50.364;14.874;2022-08-19T01:46:30;97845.78;;;20.63;71.77
66547;BME280;53400;50.364;14.874;2022-08-19T01:48:57;97851.78;;;20.77;71.53
66547;BME280;53400;50.364;14.874;2022-08-19T01:51:23;97837.91;;;20.70;71.82
66547;BME280;53400;50.364;14.874;2022-08-19T01:53:49;97834.13;;;20.62;72.13
66547;BME280;53400;50.364;14.874;2022-08-19T01:56:16;97832.41;;;20.49;73.29
66547;BME280;53400;50.364;14.874;2022-08-19T01:58:51;97830.41;;;20.37;74.26
66547;BME280;53400;50.364;14.874;2022-08-19T02:01:19;97820.44;;;20.42;75.01
66547;BME280;53400;50.364;14.874;2022-08-19T02:03:45;97825.56;;;20.43;75.04
66547;BME280;53400;50.364;14.874;2022-08-19T02:06:11;97829.78;;;20.32;75.36
66547;BME280;53400;50.364;14.874;2022-08-19T02:08:38;97835.91;;;20.20;76.55
66547;BME280;53400;50.364;14.874;2022-08-19T02:11:05;97848.13;;;20.44;75.50
66547;BME280;53400;50.364;14.874;2022-08-19T02:13:31;97837.00;;;20.87;73.78
66547;BME280;53400;50.364;14.874;2022-08-19T02:15:59;97848.94;;;21.16;72.85
66547;BME280;53400;50.364;14.874;2022-08-19T02:18:25;97848.06;;;21.24;72.43
66547;BME280;53400;50.364;14.874;2022-08-19T02:20:52;97860.97;;;21.36;71.70
66547;BME280;53400;50.364;14.874;2022-08-19T02:23:18;97865.88;;;21.21;72.30
66547;BME280;53400;50.364;14.874;2022-08-19T02:25:48;97861.56;;;21.20;72.66
66547;BME280;53400;50.364;14.874;2022-08-19T02:28:14;97864.34;;;21.12;73.38
66547;BME280;53400;50.364;14.874;2022-08-19T02:30:41;97880.28;;;21.22;72.86
66547;BME280;53400;50.364;14.874;2022-08-19T02:33:08;97882.09;;;20.97;74.29
66547;BME280;53400;50.364;14.874;2022-08-19T02:35:34;97871.47;;;20.45;76.83
66547;BME280;53400;50.364;14.874;2022-08-19T02:38:00;97871.41;;;20.24;77.80
66547;BME280;53400;50.364;14.874;2022-08-19T02:40:48;97870.00;;;20.17;77.98
66547;BME280;53400;50.364;14.874;2022-08-19T02:43:16;97870.31;;;20.16;78.37
66547;BME280;53400;50.364;14.874;2022-08-19T02:45:41;97868.84;;;20.27;78.32
66547;BME280;53400;50.364;14.874;2022-08-19T02:48:09;97885.28;;;19.84;81.30
66547;BME280;53400;50.364;14.874;2022-08-19T02:50:37;97887.41;;;19.69;82.13
66547;BME280;53400;50.364;14.874;2022-08-19T02:53:03;97888.84;;;19.49;84.09
66547;BME280;53400;50.364;14.874;2022-08-19T02:55:28;97888.81;;;19.84;82.37
66547;BME280;53400;50.364;14.874;2022-08-19T02:57:54;97895.34;;;20.39;79.43
66547;BME280;53400;50.364;14.874;2022-08-19T03:00:20;97897.69;;;20.11;80.52
66547;BME280;53400;50.364;14.874;2022-08-19T03:02:46;97904.47;;;19.61;83.44
66547;BME280;53400;50.364;14.874;2022-08-19T03:05:13;97891.72;;;19.79;83.94
66547;BME280;53400;50.364;14.874;2022-08-19T03:07:39;97883.28;;;20.10;82.31
66547;BME280;53400;50.364;14.874;2022-08-19T03:10:06;97892.91;;;20.08;81.99
66547;BME280;53400;50.364;14.874;2022-08-19T03:12:35;97902.78;;;20.21;81.65
66547;BME280;53400;50.364;14.874;2022-08-19T03:15:03;97908.06;;;20.65;78.86
66547;BME280;53400;50.364;14.874;2022-08-19T03:17:29;97915.47;;;20.85;77.44
66547;BME280;53400;50.364;14.874;2022-08-19T03:19:55;97917.84;;;20.57;78.87
66547;BME280;53400;50.364;14.874;2022-08-19T03:22:22;97922.78;;;20.16;81.07
66547;BME280;53400;50.364;14.874;2022-08-19T03:24:48;97914.53;;;20.43;79.82
66547;BME280;53400;50.364;14.874;2022-08-19T03:27:14;97908.75;;;20.53;79.41
66547;BME280;53400;50.364;14.874;2022-08-19T03:29:40;97909.19;;;20.64;79.12
66547;BME280;53400;50.364;14.874;2022-08-19T03:32:06;97910.88;;;20.77;78.83
66547;BME280;53400;50.364;14.874;2022-08-19T03:34:34;97906.59;;;20.67;79.38
66547;BME280;53400;50.364;14.874;2022-08-19T03:37:04;97905.22;;;20.05;82.63
66547;BME280;53400;50.364;14.874;2022-08-19T03:39:31;97908.16;;;19.57;85.80
66547;BME280;53400;50.364;14.874;2022-08-19T03:41:57;97916.63;;;19.38;88.39
66547;BME280;53400;50.364;14.874;2022-08-19T03:44:25;97918.56;;;19.37;89.20
66547;BME280;53400;50.364;14.874;2022-08-19T03:46:53;97919.97;;;19.26;90.12
66547;BME280;53400;50.364;14.874;2022-08-19T03:49:22;97913.41;;;19.62;87.59
66547;BME280;53400;50.364;14.874;2022-08-19T03:51:49;97933.88;;;19.94;86.02
66547;BME280;53400;50.364;14.874;2022-08-19T03:54:18;97932.56;;;20.09;85.28
66547;BME280;53400;50.364;14.874;2022-08-19T03:56:47;97933.66;;;20.16;84.80
66547;BME280;53400;50.364;14.874;2022-08-19T03:59:16;97919.50;;;20.40;83.15
66547;BME280;53400;50.364;14.874;2022-08-19T04:01:42;97910.16;;;20.50;82.21
66547;BME280;53400;50.364;14.874;2022-08-19T04:04:09;97903.25;;;20.61;81.54
66547;BME280;53400;50.364;14.874;2022-08-19T04:06:36;97913.16;;;20.66;80.48
66547;BME280;53400;50.364;14.874;2022-08-19T04:09:05;97915.06;;;20.66;79.92
66547;BME280;53400;50.364;14.874;2022-08-19T04:11:35;97918.03;;;20.52;80.16
66547;BME280;53400;50.364;14.874;2022-08-19T04:14:02;97918.19;;;20.47;79.69
66547;BME280;53400;50.364;14.874;2022-08-19T04:16:28;97917.38;;;20.46;78.91
66547;BME280;53400;50.364;14.874;2022-08-19T04:18:55;97911.19;;;20.37;81.34
66547;BME280;53400;50.364;14.874;2022-08-19T04:21:23;97905.50;;;20.59;80.71
66547;BME280;53400;50.364;14.874;2022-08-19T04:23:49;97913.50;;;20.65;79.59
66547;BME280;53400;50.364;14.874;2022-08-19T04:26:17;97908.44;;;20.54;78.10
66547;BME280;53400;50.364;14.874;2022-08-19T04:28:44;97909.59;;;19.28;82.72
66547;BME280;53400;50.364;14.874;2022-08-19T04:31:15;97918.19;;;18.78;85.80
66547;BME280;53400;50.364;14.874;2022-08-19T04:33:41;97930.50;;;19.01;84.00
66547;BME280;53400;50.364;14.874;2022-08-19T04:36:14;97936.91;;;19.23;83.63
66547;BME280;53400;50.364;14.874;2022-08-19T04:38:40;97937.22;;;19.56;82.54
66547;BME280;53400;50.364;14.874;2022-08-19T04:41:06;97933.25;;;19.88;81.10
66547;BME280;53400;50.364;14.874;2022-08-19T04:43:51;97912.66;;;20.26;79.65
66547;BME280;53400;50.364;14.874;2022-08-19T04:46:18;97935.00;;;20.40;79.21
66547;BME280;53400;50.364;14.874;2022-08-19T04:48:44;97945.47;;;20.21;81.26
66547;BME280;53400;50.364;14.874;2022-08-19T04:51:12;97946.75;;;20.70;79.19
66547;BME280;53400;50.364;14.874;2022-08-19T04:53:40;97944.78;;;21.09;77.51
66547;BME280;53400;50.364;14.874;2022-08-19T04:56:10;97953.38;;;21.41;76.50
66547;BME280;53400;50.364;14.874;2022-08-19T04:58:36;97949.91;;;21.31;77.32
66547;BME280;53400;50.364;14.874;2022-08-19T05:01:03;97969.84;;;21.44;77.03
66547;BME280;53400;50.364;14.874;2022-08-19T05:03:30;97960.78;;;20.81;76.24
66547;BME280;53400;50.364;14.874;2022-08-19T05:06:04;97970.59;;;21.03;76.40
66547;BME280;53400;50.364;14.874;2022-08-19T05:08:31;97975.31;;;21.15;78.91
66547;BME280;53400;50.364;14.874;2022-08-19T05:10:57;97982.28;;;21.03;80.71
66547;BME280;53400;50.364;14.874;2022-08-19T05:13:23;97980.56;;;21.20;80.85
66547;BME280;53400;50.364;14.874;2022-08-19T05:15:54;97984.44;;;21.19;80.67
66547;BME280;53400;50.364;14.874;2022-08-19T05:18:20;97998.31;;;21.56;79.21
66547;BME280;53400;50.364;14.874;2022-08-19T05:21:08;97995.38;;;21.61;78.57
66547;BME280;53400;50.364;14.874;2022-08-19T05:23:53;97997.56;;;21.67;78.00
66547;BME280;53400;50.364;14.874;2022-08-19T05:26:19;98000.06;;;21.72;77.99
66547;BME280;53400;50.364;14.874;2022-08-19T05:28:45;97996.03;;;21.79;77.83
66547;BME280;53400;50.364;14.874;2022-08-19T05:31:10;98000.97;;;21.85;77.96
66547;BME280;53400;50.364;14.874;2022-08-19T05:33:36;98007.28;;;21.77;77.68
66547;BME280;53400;50.364;14.874;2022-08-19T05:36:03;98011.28;;;22.13;76.29
66547;BME280;53400;50.364;14.874;2022-08-19T05:38:31;98019.19;;;22.06;76.58
66547;BME280;53400;50.364;14.874;2022-08-19T05:40:57;98037.63;;;21.88;77.67
66547;BME280;53400;50.364;14.874;2022-08-19T05:43:23;98046.63;;;21.88;78.00
66547;BME280;53400;50.364;14.874;2022-08-19T05:45:48;98051.72;;;21.69;79.41
66547;BME280;53400;50.364;14.874;2022-08-19T05:48:16;98045.75;;;21.75;78.29
66547;BME280;53400;50.364;14.874;2022-08-19T05:50:46;98046.94;;;21.87;78.51
66547;BME280;53400;50.364;14.874;2022-08-19T05:53:12;98041.03;;;22.39;75.96
66547;BME280;53400;50.364;14.874;2022-08-19T05:55:39;98041.00;;;22.60;75.04
66547;BME280;53400;50.364;14.874;2022-08-19T05:58:05;98043.97;;;22.79;74.02
66547;BME280;53400;50.364;14.874;2022-08-19T06:00:33;98052.91;;;23.01;71.57
66547;BME280;53400;50.364;14.874;2022-08-19T06:02:59;98042.00;;;23.01;72.04
66547;BME280;53400;50.364;14.874;2022-08-19T06:05:28;98050.19;;;23.38;70.52
66547;BME280;53400;50.364;14.874;2022-08-19T06:07:54;98059.75;;;22.95;72.73
66547;BME280;53400;50.364;14.874;2022-08-19T06:10:20;98059.38;;;22.96;72.72
66547;BME280;53400;50.364;14.874;2022-08-19T06:12:48;98070.53;;;23.28;71.04
66547;BME280;53400;50.364;14.874;2022-08-19T06:15:14;98075.09;;;22.99;72.19
66547;BME280;53400;50.364;14.874;2022-08-19T06:17:41;98093.44;;;23.23;71.41
66547;BME280;53400;50.364;14.874;2022-08-19T06:20:11;98090.91;;;23.30;70.78
66547;BME280;53400;50.364;14.874;2022-08-19T06:22:39;98095.47;;;23.26;71.16
66547;BME280;53400;50.364;14.874;2022-08-19T06:25:06;98102.75;;;23.84;68.95
66547;BME280;53400;50.364;14.874;2022-08-19T06:27:32;98097.66;;;24.10;68.46
66547;BME280;53400;50.364;14.874;2022-08-19T06:30:01;98109.78;;;24.25;67.42
66547;BME280;53400;50.364;14.874;2022-08-19T06:32:27;98121.50;;;23.97;67.68
66547;BME280;53400;50.364;14.874;2022-08-19T06:34:53;98121.72;;;24.04;66.84
66547;BME280;53400;50.364;14.874;2022-08-19T06:37:19;98118.63;;;24.06;67.01
66547;BME280;53400;50.364;14.874;2022-08-19T06:39:47;98116.03;;;23.97;67.50
66547;BME280;53400;50.364;14.874;2022-08-19T06:42:14;98125.81;;;24.11;66.97
66547;BME280;53400;50.364;14.874;2022-08-19T06:44:43;98126.53;;;24.36;66.43
66547;BME280;53400;50.364;14.874;2022-08-19T06:47:15;98132.81;;;24.64;65.30
66547;BME280;53400;50.364;14.874;2022-08-19T06:49:42;98139.69;;;24.58;65.53
66547;BME280;53400;50.364;14.874;2022-08-19T06:52:09;98142.56;;;24.49;66.41
66547;BME280;53400;50.364;14.874;2022-08-19T06:54:37;98140.19;;;24.48;65.69
66547;BME280;53400;50.364;14.874;2022-08-19T06:57:05;98134.75;;;24.36;66.72
66547;BME280;53400;50.364;14.874;2022-08-19T06:59:32;98138.94;;;24.45;65.53
66547;BME280;53400;50.364;14.874;2022-08-19T07:02:00;98138.63;;;24.35;65.87
66547;BME280;53400;50.364;14.874;2022-08-19T07:04:29;98146.25;;;23.76;68.51
66547;BME280;53400;50.364;14.874;2022-08-19T07:07:01;98157.13;;;24.25;68.04
66547;BME280;53400;50.364;14.874;2022-08-19T07:09:28;98154.56;;;24.73;66.25
66547;BME280;53400;50.364;14.874;2022-08-19T07:11:55;98149.09;;;24.73;65.38
66547;BME280;53400;50.364;14.874;2022-08-19T07:14:23;98139.53;;;24.67;66.46
66547;BME280;53400;50.364;14.874;2022-08-19T07:16:52;98154.72;;;24.92;65.36
66547;BME280;53400;50.364;14.874;2022-08-19T07:19:20;98160.22;;;25.08;65.09
66547;BME280;53400;50.364;14.874;2022-08-19T07:21:50;98171.47;;;25.19;64.54
66547;BME280;53400;50.364;14.874;2022-08-19T07:24:18;98153.97;;;24.52;65.66
66547;BME280;53400;50.364;14.874;2022-08-19T07:26:44;98159.75;;;24.62;66.72
66547;BME280;53400;50.364;14.874;2022-08-19T07:29:12;98160.84;;;24.73;66.59
66547;BME280;53400;50.364;14.874;2022-08-19T07:31:38;98153.03;;;24.60;66.08
66547;BME280;53400;50.364;14.874;2022-08-19T07:34:05;98161.91;;;24.16;67.71
66547;BME280;53400;50.364;14.874;2022-08-19T07:36:37;98152.28;;;23.82;68.27
66547;BME280;53400;50.364;14.874;2022-08-19T07:39:07;98135.06;;;24.34;66.90
66547;BME280;53400;50.364;14.874;2022-08-19T07:41:34;98146.00;;;24.46;65.68
66547;BME280;53400;50.364;14.874;2022-08-19T07:44:03;98144.44;;;24.33;65.94
66547;BME280;53400;50.364;14.874;2022-08-19T07:46:30;98149.47;;;23.78;68.22
66547;BME280;53400;50.364;14.874;2022-08-19T07:48:56;98146.34;;;24.04;68.24
66547;BME280;53400;50.364;14.874;2022-08-19T07:51:22;98145.19;;;24.06;67.46
66547;BME280;53400;50.364;14.874;2022-08-19T07:53:49;98138.81;;;24.54;66.26
66547;BME280;53400;50.364;14.874;2022-08-19T07:56:19;98135.03;;;25.18;64.06
66547;BME280;53400;50.364;14.874;2022-08-19T07:58:46;98120.66;;;25.73;62.44
66547;BME280;53400;50.364;14.874;2022-08-19T08:01:15;98121.50;;;25.93;62.54
66547;BME280;53400;50.364;14.874;2022-08-19T08:03:42;98125.75;;;25.39;62.06
66547;BME280;53400;50.364;14.874;2022-08-19T08:06:26;98125.19;;;25.65;62.39
66547;BME280;53400;50.364;14.874;2022-08-19T08:09:12;98102.22;;;26.24;59.69
66547;BME280;53400;50.364;14.874;2022-08-19T08:11:44;98095.34;;;26.34;59.38
66547;BME280;53400;50.364;14.874;2022-08-19T08:14:17;98094.31;;;26.62;58.04
66547;BME280;53400;50.364;14.874;2022-08-19T08:16:45;98088.09;;;26.65;58.27
66547;BME280;53400;50.364;14.874;2022-08-19T08:19:12;98072.13;;;26.93;57.03
66547;BME280;53400;50.364;14.874;2022-08-19T08:21:40;98067.72;;;27.12;56.05
66547;BME280;53400;50.364;14.874;2022-08-19T08:24:07;98065.53;;;27.48;54.26
66547;BME280;53400;50.364;14.874;2022-08-19T08:26:33;98059.97;;;27.17;55.70
66547;BME280;53400;50.364;14.874;2022-08-19T08:29:01;98049.41;;;27.19;55.80
66547;BME280;53400;50.364;14.874;2022-08-19T08:31:27;98036.41;;;27.43;54.49
66547;BME280;53400;50.364;14.874;2022-08-19T08:33:54;98026.22;;;27.43;53.54
66547;BME280;53400;50.364;14.874;2022-08-19T08:36:20;98025.16;;;27.25;53.27
66547;BME280;53400;50.364;14.874;2022-08-19T08:38:47;98029.81;;;27.21;53.77
66547;BME280;53400;50.364;14.874;2022-08-19T08:41:18;98072.22;;;27.47;54.44
66547;BME280;53400;50.364;14.874;2022-08-19T08:43:50;98090.94;;;27.37;54.74
66547;BME280;53400;50.364;14.874;2022-08-19T08:46:21;98102.50;;;27.50;53.51
66547;BME280;53400;50.364;14.874;2022-08-19T08:48:53;98118.66;;;27.06;54.81
66547;BME280;53400;50.364;14.874;2022-08-19T08:51:23;98119.34;;;27.22;54.97
66547;BME280;53400;50.364;14.874;2022-08-19T08:53:51;98128.97;;;27.12;55.30
66547;BME280;53400;50.364;14.874;2022-08-19T08:56:19;98136.59;;;27.19;54.45
66547;BME280;53400;50.364;14.874;2022-08-19T08:58:51;98138.00;;;26.90;55.75
66547;BME280;53400;50.364;14.874;2022-08-19T09:01:21;98150.63;;;26.52;57.23
66547;BME280;53400;50.364;14.874;2022-08-19T09:03:47;98154.84;;;26.88;56.23
66547;BME280;53400;50.364;14.874;2022-08-19T09:06:22;98156.66;;;26.81;55.86
66547;BME280;53400;50.364;14.874;2022-08-19T09:08:56;98154.59;;;26.74;56.29
66547;BME280;53400;50.364;14.874;2022-08-19T09:11:47;98156.53;;;26.73;56.09
66547;BME280;53400;50.364;14.874;2022-08-19T09:14:34;98159.25;;;26.15;57.71
66547;BME280;53400;50.364;14.874;2022-08-19T09:17:02;98155.59;;;26.27;58.01
66547;BME280;53400;50.364;14.874;2022-08-19T09:19:29;98150.63;;;26.52;57.30
66547;BME280;53400;50.364;14.874;2022-08-19T09:21:55;98153.91;;;27.00;55.58
66547;BME280;53400;50.364;14.874;2022-08-19T09:24:21;98145.59;;;26.96;55.08
66547;BME280;53400;50.364;14.874;2022-08-19T09:26:47;98157.06;;;27.02;54.37
66547;BME280;53400;50.364;14.874;2022-08-19T09:29:13;98152.72;;;27.01;54.48
66547;BME280;53400;50.364;14.874;2022-08-19T09:31:40;98154.81;;;26.85;55.29
66547;BME280;53400;50.364;14.874;2022-08-19T09:34:07;98155.31;;;26.71;55.20
66547;BME280;53400;50.364;14.874;2022-08-19T09:36:33;98161.06;;;26.46;57.12
66547;BME280;53400;50.364;14.874;2022-08-19T09:39:02;98163.47;;;26.48;57.53
66547;BME280;53400;50.364;14.874;2022-08-19T09:41:29;98161.97;;;26.50;56.42
66547;BME280;53400;50.364;14.874;2022-08-19T09:43:57;98151.34;;;26.29;58.19
66547;BME280;53400;50.364;14.874;2022-08-19T09:46:24;98157.97;;;26.48;56.55
66547;BME280;53400;50.364;14.874;2022-08-19T09:48:50;98165.88;;;26.14;57.35
66547;BME280;53400;50.364;14.874;2022-08-19T09:51:21;98162.53;;;26.40;56.84
66547;BME280;53400;50.364;14.874;2022-08-19T09:53:48;98154.75;;;26.62;56.01
66547;BME280;53400;50.364;14.874;2022-08-19T09:56:20;98168.16;;;26.86;55.75
66547;BME280;53400;50.364;14.874;2022-08-19T09:58:47;98169.50;;;26.96;55.82
66547;BME280;53400;50.364;14.874;2022-08-19T10:01:17;98171.69;;;27.06;56.52
66547;BME280;53400;50.364;14.874;2022-08-19T10:03:47;98170.06;;;27.05;55.66
66547;BME280;53400;50.364;14.874;2022-08-19T10:06:14;98168.00;;;27.18;55.48
66547;BME280;53400;50.364;14.874;2022-08-19T10:08:41;98170.41;;;27.23;54.44
66547;BME280;53400;50.364;14.874;2022-08-19T10:11:08;98169.41;;;26.69;56.43
66547;BME280;53400;50.364;14.874;2022-08-19T10:13:35;98171.47;;;26.95;56.40
66547;BME280;53400;50.364;14.874;2022-08-19T10:16:04;98163.22;;;27.15;56.28
66547;BME280;53400;50.364;14.874;2022-08-19T10:18:31;98176.25;;;27.18;54.39
66547;BME280;53400;50.364;14.874;2022-08-19T10:21:04;98182.69;;;27.29;55.01
66547;BME280;53400;50.364;14.874;2022-08-19T10:23:35;98178.81;;;27.30;55.63
66547;BME280;53400;50.364;14.874;2022-08-19T10:26:04;98175.69;;;27.32;53.82
66547;BME280;53400;50.364;14.874;2022-08-19T10:28:32;98176.97;;;27.87;53.31
66547;BME280;53400;50.364;14.874;2022-08-19T10:30:58;98171.06;;;27.62;53.15
66547;BME280;53400;50.364;14.874;2022-08-19T10:33:24;98171.25;;;27.50;54.38
66547;BME280;53400;50.364;14.874;2022-08-19T10:35:59;98172.03;;;27.74;53.77
66547;BME280;53400;50.364;14.874;2022-08-19T10:38:25;98180.06;;;27.82;52.04
66547;BME280;53400;50.364;14.874;2022-08-19T10:40:51;98169.84;;;28.40;50.29
66547;BME280;53400;50.364;14.874;2022-08-19T10:43:19;98177.44;;;28.46;51.09
66547;BME280;53400;50.364;14.874;2022-08-19T10:45:51;98182.19;;;28.49;50.34
66547;BME280;53400;50.364;14.874;2022-08-19T10:48:17;98179.31;;;28.42;50.51
66547;BME280;53400;50.364;14.874;2022-08-19T10:50:43;98183.72;;;28.80;49.40
66547;BME280;53400;50.364;14.874;2022-08-19T10:53:27;98176.31;;;28.54;49.83
66547;BME280;53400;50.364;14.874;2022-08-19T10:55:53;98173.22;;;28.56;49.66
66547;BME280;53400;50.364;14.874;2022-08-19T10:58:39;98172.69;;;28.17;50.80
66547;BME280;53400;50.364;14.874;2022-08-19T11:01:07;98175.00;;;28.14;51.33
66547;BME280;53400;50.364;14.874;2022-08-19T11:03:33;98168.06;;;28.24;51.00
66547;BME280;53400;50.364;14.874;2022-08-19T11:05:59;98170.03;;;28.54;50.65
66547;BME280;53400;50.364;14.874;2022-08-19T11:08:25;98174.44;;;28.32;51.58
66547;BME280;53400;50.364;14.874;2022-08-19T11:10:53;98175.50;;;28.50;49.90
66547;BME280;53400;50.364;14.874;2022-08-19T11:13:22;98176.84;;;28.97;48.34
66547;BME280;53400;50.364;14.874;2022-08-19T11:15:57;98175.22;;;28.96;48.49
66547;BME280;53400;50.364;14.874;2022-08-19T11:18:24;98177.78;;;29.12;48.00
66547;BME280;53400;50.364;14.874;2022-08-19T11:20:50;98172.94;;;29.43;47.75
66547;BME280;53400;50.364;14.874;2022-08-19T11:23:15;98171.25;;;28.94;49.09
66547;BME280;53400;50.364;14.874;2022-08-19T11:25:41;98169.91;;;28.77;48.88
66547;BME280;53400;50.364;14.874;2022-08-19T11:28:07;98163.13;;;28.67;48.88
66547;BME280;53400;50.364;14.874;2022-08-19T11:30:34;98154.44;;;28.65;49.36
66547;BME280;53400;50.364;14.874;2022-08-19T11:33:01;98155.22;;;28.66;49.15
66547;BME280;53400;50.364;14.874;2022-08-19T11:35:28;98165.38;;;28.58;50.34
66547;BME280;53400;50.364;14.874;2022-08-19T11:37:53;98160.22;;;28.56;50.22
66547;BME280;53400;50.364;14.874;2022-08-19T11:40:20;98157.28;;;29.10;49.54
66547;BME280;53400;50.364;14.874;2022-08-19T11:42:45;98155.56;;;29.39;47.97
66547;BME280;53400;50.364;14.874;2022-08-19T11:45:21;98161.56;;;29.48;45.59
66547;BME280;53400;50.364;14.874;2022-08-19T11:47:47;98151.75;;;29.54;45.15
66547;BME280;53400;50.364;14.874;2022-08-19T11:50:15;98159.22;;;29.09;46.68
66547;BME280;53400;50.364;14.874;2022-08-19T11:52:41;98155.53;;;28.94;46.91
66547;BME280;53400;50.364;14.874;2022-08-19T11:55:09;98152.19;;;29.15;47.70
66547;BME280;53400;50.364;14.874;2022-08-19T11:57:35;98151.91;;;28.87;48.16
66547;BME280;53400;50.364;14.874;2022-08-19T12:00:02;98158.84;;;29.07;48.62
66547;BME280;53400;50.364;14.874;2022-08-19T12:02:29;98162.75;;;29.06;47.44
66547;BME280;53400;50.364;14.874;2022-08-19T12:04:54;98154.66;;;29.24;47.16
66547;BME280;53400;50.364;14.874;2022-08-19T12:07:22;98157.50;;;29.35;46.12
66547;BME280;53400;50.364;14.874;2022-08-19T12:09:48;98149.25;;;28.60;47.06
66547;BME280;53400;50.364;14.874;2022-08-19T12:12:14;98144.38;;;28.16;48.40
66547;BME280;53400;50.364;14.874;2022-08-19T12:14:41;98131.16;;;29.00;46.82
66547;BME280;53400;50.364;14.874;2022-08-19T12:17:08;98142.41;;;29.21;46.58
66547;BME280;53400;50.364;14.874;2022-08-19T12:19:35;98138.53;;;29.30;46.40
66547;BME280;53400;50.364;14.874;2022-08-19T12:22:02;98137.66;;;29.18;46.47
66547;BME280;53400;50.364;14.874;2022-08-19T12:24:31;98134.97;;;29.25;45.98
66547;BME280;53400;50.364;14.874;2022-08-19T12:26:58;98125.31;;;29.49;44.91
66547;BME280;53400;50.364;14.874;2022-08-19T12:29:29;98125.66;;;29.44;46.33
66547;BME280;53400;50.364;14.874;2022-08-19T12:31:57;98115.22;;;29.64;45.98
66547;BME280;53400;50.364;14.874;2022-08-19T12:34:28;98116.66;;;29.55;46.14
66547;BME280;53400;50.364;14.874;2022-08-19T12:36:57;98117.38;;;29.44;46.51
66547;BME280;53400;50.364;14.874;2022-08-19T12:39:24;98114.28;;;29.49;46.83
66547;BME280;53400;50.364;14.874;2022-08-19T12:41:55;98123.78;;;29.52;46.48
66547;BME280;53400;50.364;14.874;2022-08-19T12:44:24;98123.66;;;29.41;45.79
66547;BME280;53400;50.364;14.874;2022-08-19T12:46:50;98109.53;;;29.46;46.44
66547;BME280;53400;50.364;14.874;2022-08-19T12:49:17;98121.88;;;29.63;44.91
66547;BME280;53400;50.364;14.874;2022-08-19T12:51:43;98118.78;;;29.24;46.24
66547;BME280;53400;50.364;14.874;2022-08-19T12:54:09;98120.25;;;29.55;45.89
66547;BME280;53400;50.364;14.874;2022-08-19T12:56:36;98118.25;;;29.52;45.64